Time;durP1;ratioP1;P1;durP2;ratioP2;P2;SDS_P1;SDS_P2;PMS_P1;PMS_P2;Temp;Humidity;BMP_temperature;BMP_pressure;BME280_temperature;BME280_humidity;BME280_pressure;Samples;Min_cycle;Max_cycle;Signal;HPM_P1;HPM_P2
2023/03/02 00:01:25;;;;;;;0.50;0.50;;;4.90;99.90;;;;;;6216160;23;20071;-72
2023/03/02 00:03:51;;;;;;;0.57;0.57;;;4.90;99.90;;;;;;6215947;23;20024;-73
2023/03/02 00:06:17;;;;;;;0.60;0.60;;;4.90;99.90;;;;;;6215965;23;20008;-73
2023/03/02 00:08:44;;;;;;;0.70;0.70;;;4.80;99.90;;;;;;6215734;23;20013;-72
2023/03/02 00:11:10;;;;;;;0.57;0.57;;;4.90;99.90;;;;;;6216160;23;20330;-72
2023/03/02 00:13:37;;;;;;;0.60;0.60;;;4.80;99.90;;;;;;6188973;23;20422;-72
2023/03/02 00:16:03;;;;;;;0.70;0.70;;;4.80;99.90;;;;;;6216081;23;20307;-72
2023/03/02 00:18:29;;;;;;;0.70;0.70;;;4.80;99.90;;;;;;6189156;23;20024;-72
2023/03/02 00:20:54;;;;;;;0.65;0.65;;;4.80;99.90;;;;;;6189285;23;20017;-72
2023/03/02 00:23:20;;;;;;;0.70;0.70;;;4.70;99.90;;;;;;6189122;23;20388;-73
2023/03/02 00:25:46;;;;;;;0.50;0.50;;;4.80;99.90;;;;;;6189089;23;20028;-72
2023/03/02 00:28:11;;;;;;;0.60;0.60;;;4.80;99.90;;;;;;6189232;23;20401;-72
2023/03/02 00:30:38;;;;;;;0.50;0.50;;;4.80;99.90;;;;;;6189558;23;20017;-72
2023/03/02 00:33:03;;;;;;;0.60;0.60;;;4.70;99.90;;;;;;6215968;23;20083;-72
2023/03/02 00:35:29;;;;;;;0.70;0.70;;;4.70;99.90;;;;;;6217463;23;20055;-72
2023/03/02 00:37:55;;;;;;;0.70;0.70;;;4.70;99.90;;;;;;6218092;23;20016;-73
2023/03/02 00:40:20;;;;;;;0.60;0.60;;;4.60;99.90;;;;;;6190958;23;20023;-72
2023/03/02 00:42:46;;;;;;;0.70;0.70;;;4.50;99.90;;;;;;6191347;23;20021;-72
2023/03/02 00:45:12;;;;;;;0.60;0.60;;;4.40;99.90;;;;;;6218075;23;20072;-72
2023/03/02 00:47:37;;;;;;;0.70;0.70;;;4.50;99.90;;;;;;6217822;23;20024;-72
2023/03/02 00:50:05;;;;;;;0.73;0.73;;;4.50;99.90;;;;;;6218227;23;20013;-72
2023/03/02 00:52:32;;;;;;;0.70;0.70;;;4.40;99.90;;;;;;6217674;23;20009;-72
2023/03/02 00:54:58;;;;;;;0.60;0.60;;;4.50;99.90;;;;;;6191175;23;20027;-72
2023/03/02 00:57:24;;;;;;;0.77;0.77;;;4.40;99.90;;;;;;6218175;23;20326;-73
2023/03/02 00:59:49;;;;;;;0.70;0.70;;;4.50;99.90;;;;;;6217907;23;20047;-73
2023/03/02 01:02:15;;;;;;;0.70;0.70;;;4.40;99.90;;;;;;6217585;23;20428;-73
2023/03/02 01:04:42;;;;;;;0.70;0.70;;;4.50;99.90;;;;;;6218109;23;20056;-73
2023/03/02 01:07:14;;;;;;;0.70;0.70;;;4.50;99.90;;;;;;6217929;23;20154;-72
2023/03/02 01:09:41;;;;;;;0.60;0.60;;;4.40;99.90;;;;;;6217892;23;20009;-72
2023/03/02 01:12:09;;;;;;;0.70;0.70;;;4.40;99.90;;;;;;6217681;23;20016;-72
2023/03/02 01:14:36;;;;;;;0.60;0.60;;;4.50;99.90;;;;;;6217837;23;20009;-73
2023/03/02 01:17:02;;;;;;;0.77;0.77;;;4.30;99.90;;;;;;6217608;23;20087;-72
2023/03/02 01:19:29;;;;;;;0.70;0.70;;;4.30;99.90;;;;;;6217667;23;20077;-73
2023/03/02 01:21:54;;;;;;;0.80;0.80;;;4.30;99.90;;;;;;6190887;23;20016;-73
2023/03/02 01:24:20;;;;;;;0.70;0.70;;;4.30;99.90;;;;;;6190894;23;20430;-72
2023/03/02 01:26:45;;;;;;;0.65;0.65;;;4.20;99.90;;;;;;6217808;23;20020;-73
2023/03/02 01:29:11;;;;;;;0.70;0.70;;;4.20;99.90;;;;;;6217759;23;20004;-72
2023/03/02 01:31:37;;;;;;;0.70;0.70;;;4.10;99.90;;;;;;6190786;23;20012;-72
2023/03/02 01:34:03;;;;;;;0.70;0.70;;;4.20;99.90;;;;;;6165943;23;20016;-72
2023/03/02 01:36:29;;;;;;;0.60;0.60;;;4.10;99.90;;;;;;6217755;23;20009;-73
2023/03/02 01:38:54;;;;;;;0.82;0.82;;;4.00;99.90;;;;;;6217522;23;20015;-72
2023/03/02 01:41:20;;;;;;;0.63;0.63;;;3.90;99.90;;;;;;6190463;23;20048;-72
2023/03/02 01:43:46;;;;;;;0.70;0.70;;;3.80;99.90;;;;;;6190442;23;20009;-72
2023/03/02 01:46:18;;;;;;;0.80;0.80;;;3.60;99.90;;;;;;6218059;23;20005;-72
2023/03/02 01:48:53;;;;;;;0.70;0.70;;;3.60;99.90;;;;;;6217602;23;20011;-72
2023/03/02 01:51:24;;;;;;;0.70;0.70;;;3.50;99.90;;;;;;6190535;23;20021;-72
2023/03/02 01:53:53;;;;;;;0.70;0.70;;;3.50;99.90;;;;;;6216854;23;20063;-72
2023/03/02 01:56:23;;;;;;;0.70;0.70;;;3.60;99.90;;;;;;6217508;23;20004;-72
2023/03/02 01:58:55;;;;;;;0.80;0.80;;;3.60;99.90;;;;;;6217420;23;20553;-72
2023/03/02 02:01:21;;;;;;;0.80;0.80;;;3.50;99.90;;;;;;6217276;23;20019;-73
2023/03/02 02:03:49;;;;;;;0.70;0.70;;;3.60;99.90;;;;;;6190385;23;20044;-73
2023/03/02 02:06:34;;;;;;;0.70;0.70;;;3.50;99.90;;;;;;6190312;23;20016;-73
2023/03/02 02:09:00;;;;;;;0.63;0.63;;;3.50;99.90;;;;;;6190556;23;20401;-73
2023/03/02 02:11:26;;;;;;;0.70;0.70;;;3.40;99.90;;;;;;6165423;23;20089;-72
2023/03/02 02:13:59;;;;;;;0.80;0.80;;;3.50;99.90;;;;;;6190178;23;20048;-73
2023/03/02 02:16:26;;;;;;;0.60;0.60;;;3.40;99.90;;;;;;6217318;23;20062;-72
2023/03/02 02:18:52;;;;;;;0.70;0.70;;;3.40;99.90;;;;;;6216757;23;20532;-73
2023/03/02 02:21:19;;;;;;;0.70;0.70;;;3.40;99.90;;;;;;6217224;23;20039;-72
2023/03/02 02:23:51;;;;;;;0.70;0.70;;;3.50;99.90;;;;;;6217113;23;20376;-72
2023/03/02 02:26:25;;;;;;;0.80;0.80;;;3.50;99.90;;;;;;6216752;23;20083;-72
2023/03/02 02:29:22;;;;;;;0.70;0.70;;;3.60;99.90;;;;;;6217058;23;20008;-72
2023/03/02 02:31:58;;;;;;;0.60;0.60;;;3.70;99.90;;;;;;6217586;23;20016;-72
2023/03/02 02:34:50;;;;;;;0.80;0.80;;;3.60;99.90;;;;;;6216963;23;20051;-72
2023/03/02 02:37:30;;;;;;;0.70;0.70;;;3.50;99.90;;;;;;6174171;23;20016;-72
2023/03/02 02:39:56;;;;;;;0.73;0.73;;;3.40;99.90;;;;;;6189775;23;20017;-72
2023/03/02 02:42:36;;;;;;;0.60;0.60;;;3.40;99.90;;;;;;6216931;23;20024;-72
2023/03/02 02:45:06;;;;;;;0.80;0.80;;;3.40;99.90;;;;;;6216998;23;20020;-72
2023/03/02 02:47:33;;;;;;;0.70;0.70;;;3.40;99.90;;;;;;6165113;23;20715;-72
2023/03/02 02:49:59;;;;;;;0.70;0.70;;;3.50;99.90;;;;;;6190122;23;20076;-72
2023/03/02 02:52:27;;;;;;;0.80;0.80;;;3.40;99.90;;;;;;6189850;23;20040;-73
2023/03/02 02:54:55;;;;;;;0.80;0.80;;;3.40;99.90;;;;;;6216873;23;20013;-72
2023/03/02 02:57:24;;;;;;;0.75;0.75;;;3.50;99.90;;;;;;6189483;23;20020;-73
2023/03/02 02:59:56;;;;;;;0.80;0.80;;;3.50;99.90;;;;;;6165008;23;20019;-73
2023/03/02 03:02:25;;;;;;;1.15;1.00;;;3.50;99.90;;;;;;6189859;23;20019;-73
2023/03/02 03:05:01;;;;;;;0.80;0.80;;;3.50;99.90;;;;;;6190008;23;20008;-72
2023/03/02 03:07:27;;;;;;;1.13;0.90;;;3.60;99.90;;;;;;6189989;23;20019;-72
2023/03/02 03:10:15;;;;;;;0.98;0.98;;;3.40;99.90;;;;;;6216496;23;20009;-73
2023/03/02 03:12:41;;;;;;;3.08;1.00;;;3.30;99.90;;;;;;6189719;23;20013;-73
2023/03/02 03:15:08;;;;;;;1.42;1.00;;;3.10;99.90;;;;;;6216764;23;20329;-72
2023/03/02 03:17:34;;;;;;;1.13;1.08;;;3.00;99.90;;;;;;6216271;23;20005;-72
2023/03/02 03:20:05;;;;;;;0.90;0.90;;;3.00;99.90;;;;;;6189722;23;20136;-73
2023/03/02 03:22:33;;;;;;;0.90;0.90;;;2.90;99.90;;;;;;6216234;23;20083;-72
2023/03/02 03:24:59;;;;;;;0.80;0.80;;;2.90;99.90;;;;;;6189703;23;20023;-72
2023/03/02 03:27:25;;;;;;;0.90;0.90;;;3.00;99.90;;;;;;6216216;23;20008;-72
2023/03/02 03:29:51;;;;;;;1.00;1.00;;;3.00;99.90;;;;;;6189569;23;20012;-72
2023/03/02 03:32:18;;;;;;;1.00;0.90;;;3.10;99.90;;;;;;6216745;23;20008;-73
2023/03/02 03:34:47;;;;;;;7.60;1.55;;;3.10;99.90;;;;;;6189463;23;20021;-72
2023/03/02 03:37:16;;;;;;;3.05;1.20;;;3.10;99.90;;;;;;6216621;23;20329;-73
2023/03/02 03:39:42;;;;;;;1.03;0.90;;;3.10;99.90;;;;;;6216210;23;20013;-72
2023/03/02 03:42:08;;;;;;;2.22;0.95;;;3.10;99.90;;;;;;6216511;23;20346;-72
2023/03/02 03:44:34;;;;;;;1.15;1.00;;;3.10;99.90;;;;;;6189372;23;20020;-73
2023/03/02 03:47:00;;;;;;;10.27;2.15;;;3.20;99.90;;;;;;6189412;23;20016;-72
2023/03/02 03:49:26;;;;;;;3.35;1.20;;;3.20;99.90;;;;;;6215966;23;20012;-72
2023/03/02 03:51:52;;;;;;;1.52;0.98;;;3.30;99.90;;;;;;6189472;23;20315;-72
2023/03/02 03:54:18;;;;;;;1.75;1.13;;;3.20;99.90;;;;;;6164498;23;20171;-73
2023/03/02 03:56:46;;;;;;;8.00;1.90;;;3.20;99.90;;;;;;6189270;23;20023;-72
2023/03/02 03:59:15;;;;;;;0.90;0.90;;;3.10;99.90;;;;;;6216190;23;20434;-72
2023/03/02 04:01:48;;;;;;;1.23;1.10;;;3.10;99.90;;;;;;6216169;23;20084;-73
2023/03/02 04:04:20;;;;;;;4.53;1.23;;;3.10;99.90;;;;;;6189252;23;20028;-72
2023/03/02 04:06:46;;;;;;;1.00;1.00;;;3.10;99.90;;;;;;6216226;23;20013;-72
2023/03/02 04:09:14;;;;;;;2.33;1.10;;;3.10;99.90;;;;;;6216189;23;20337;-72
2023/03/02 04:11:41;;;;;;;4.35;1.08;;;3.10;99.90;;;;;;6189380;23;20027;-72
2023/03/02 04:14:07;;;;;;;1.40;1.10;;;3.20;99.90;;;;;;6216105;23;20012;-73
2023/03/02 04:16:34;;;;;;;1.30;1.10;;;3.20;99.90;;;;;;6189321;23;20088;-73
2023/03/02 04:19:00;;;;;;;1.98;1.23;;;3.20;99.90;;;;;;6189173;23;20027;-72
2023/03/02 04:21:27;;;;;;;5.05;1.20;;;3.30;99.90;;;;;;6189824;23;20013;-72
2023/03/02 04:23:53;;;;;;;4.88;1.35;;;3.30;99.90;;;;;;6216136;23;20013;-73
2023/03/02 04:26:18;;;;;;;2.33;1.10;;;3.30;99.90;;;;;;6216087;23;20024;-73
2023/03/02 04:28:44;;;;;;;0.90;0.90;;;3.30;99.90;;;;;;6217152;23;20019;-72
2023/03/02 04:31:10;;;;;;;1.60;1.13;;;3.30;99.90;;;;;;6189283;23;20399;-73
2023/03/02 04:33:35;;;;;;;1.98;1.20;;;3.30;99.90;;;;;;6189251;23;20342;-73
2023/03/02 04:36:01;;;;;;;3.50;1.30;;;3.20;99.90;;;;;;6189346;23;20365;-73
2023/03/02 04:38:28;;;;;;;4.40;1.40;;;3.30;99.90;;;;;;6189343;23;20008;-72
2023/03/02 04:40:58;;;;;;;2.65;1.20;;;3.30;99.90;;;;;;6189032;23;20008;-73
2023/03/02 04:43:24;;;;;;;2.75;1.30;;;3.30;99.90;;;;;;6164564;23;20021;-72
2023/03/02 04:45:51;;;;;;;8.50;1.88;;;3.30;99.90;;;;;;6189236;23;20013;-72
2023/03/02 04:48:17;;;;;;;4.43;1.42;;;3.40;99.90;;;;;;6216106;23;20025;-72
2023/03/02 04:50:42;;;;;;;14.10;2.53;;;3.30;99.90;;;;;;6189226;23;20016;-72
2023/03/02 04:53:09;;;;;;;8.48;1.90;;;3.20;99.90;;;;;;6188830;23;20103;-72
2023/03/02 04:55:34;;;;;;;4.28;1.50;;;3.20;99.90;;;;;;6189107;23;20074;-72
2023/03/02 04:58:02;;;;;;;1.98;1.40;;;3.20;99.90;;;;;;6189317;23;20083;-73
2023/03/02 05:00:28;;;;;;;2.25;1.40;;;3.10;99.90;;;;;;6189192;23;20048;-74
2023/03/02 05:02:54;;;;;;;2.50;1.40;;;3.10;99.90;;;;;;6189027;23;20319;-74
2023/03/02 05:05:23;;;;;;;2.17;1.50;;;3.10;99.90;;;;;;6216170;23;20013;-72
2023/03/02 05:07:49;;;;;;;2.92;1.55;;;3.00;99.90;;;;;;6189053;23;20354;-72
2023/03/02 05:10:16;;;;;;;3.65;1.52;;;3.10;99.90;;;;;;6215976;23;20013;-71
2023/03/02 05:13:01;;;;;;;1.85;1.63;;;3.10;99.90;;;;;;6189022;23;20108;-72
2023/03/02 05:15:36;;;;;;;4.40;1.95;;;3.20;99.90;;;;;;6188968;23;20009;-71
2023/03/02 05:18:04;;;;;;;10.63;2.35;;;3.10;99.90;;;;;;6188723;23;20013;-71
2023/03/02 05:20:30;;;;;;;8.07;2.50;;;3.10;99.90;;;;;;6189213;23;20012;-72
2023/03/02 05:23:01;;;;;;;6.60;1.98;;;3.10;99.90;;;;;;6218382;23;20020;-71
2023/03/02 05:25:28;;;;;;;3.92;1.77;;;3.10;99.90;;;;;;6217787;23;20018;-72
2023/03/02 05:27:54;;;;;;;4.05;1.70;;;3.10;99.90;;;;;;6217399;23;20027;-71
2023/03/02 05:30:21;;;;;;;3.88;1.58;;;3.10;99.90;;;;;;6217419;23;20005;-72
2023/03/02 05:32:46;;;;;;;8.18;2.13;;;3.10;99.90;;;;;;6190466;23;20016;-71
2023/03/02 05:35:12;;;;;;;3.70;1.60;;;3.10;99.90;;;;;;6190616;23;20017;-72
2023/03/02 05:37:43;;;;;;;4.28;1.77;;;3.00;99.90;;;;;;6190612;23;20088;-71
2023/03/02 05:40:11;;;;;;;4.65;1.80;;;3.00;99.90;;;;;;6190352;23;20074;-71
2023/03/02 05:42:37;;;;;;;3.25;1.70;;;3.10;99.90;;;;;;6190560;23;20024;-71
2023/03/02 05:45:05;;;;;;;1.75;1.48;;;3.10;99.90;;;;;;6190366;23;20009;-71
2023/03/02 05:47:30;;;;;;;5.78;1.80;;;3.00;99.90;;;;;;6190344;23;20027;-71
2023/03/02 05:49:56;;;;;;;8.00;2.10;;;3.00;99.90;;;;;;6217332;23;20091;-71
2023/03/02 05:52:22;;;;;;;4.35;1.67;;;2.90;99.90;;;;;;6190474;23;20051;-72
2023/03/02 05:54:48;;;;;;;2.17;1.30;;;2.90;99.90;;;;;;6165324;23;20020;-72
2023/03/02 05:57:13;;;;;;;1.58;1.35;;;2.90;99.90;;;;;;6190438;23;20039;-71
2023/03/02 05:59:39;;;;;;;3.50;1.70;;;2.90;99.90;;;;;;6190333;23;20346;-72
2023/03/02 06:02:04;;;;;;;4.05;1.40;;;2.80;99.90;;;;;;6217265;23;20008;-71
2023/03/02 06:04:30;;;;;;;3.95;1.17;;;2.80;99.90;;;;;;6190292;23;20018;-71
2023/03/02 06:06:56;;;;;;;3.08;1.20;;;2.70;99.90;;;;;;6190307;23;20429;-71
2023/03/02 06:09:21;;;;;;;2.80;1.10;;;2.60;99.90;;;;;;6217165;23;20016;-71
2023/03/02 06:11:47;;;;;;;9.43;1.98;;;2.60;99.90;;;;;;6190197;23;20017;-72
2023/03/02 06:14:13;;;;;;;3.25;1.20;;;2.60;99.90;;;;;;6190113;23;20135;-71
2023/03/02 06:16:39;;;;;;;1.00;1.00;;;2.60;99.90;;;;;;6190129;23;20146;-71
2023/03/02 06:19:04;;;;;;;1.27;1.20;;;2.60;99.90;;;;;;6216833;23;20012;-71
2023/03/02 06:21:31;;;;;;;2.78;1.33;;;2.70;99.90;;;;;;6190766;23;20421;-71
2023/03/02 06:23:56;;;;;;;3.50;1.15;;;2.70;99.90;;;;;;6217204;23;20095;-72
2023/03/02 06:26:22;;;;;;;1.08;0.98;;;2.70;99.90;;;;;;6190188;23;20013;-71
2023/03/02 06:28:48;;;;;;;1.88;1.08;;;2.70;99.90;;;;;;6217166;23;20017;-72
2023/03/02 06:31:13;;;;;;;4.10;1.33;;;2.60;99.90;;;;;;6165351;23;20097;-72
2023/03/02 06:33:39;;;;;;;3.28;1.30;;;2.70;99.90;;;;;;6190041;23;20012;-72
2023/03/02 06:36:05;;;;;;;5.38;1.45;;;2.60;99.90;;;;;;6190143;23;20012;-72
2023/03/02 06:38:31;;;;;;;1.08;0.90;;;2.70;99.90;;;;;;6190349;23;20016;-71
2023/03/02 06:40:56;;;;;;;0.82;0.82;;;2.60;99.90;;;;;;6216608;23;20044;-72
2023/03/02 06:43:22;;;;;;;2.00;1.23;;;2.70;99.90;;;;;;6216936;23;20012;-71
2023/03/02 06:45:49;;;;;;;1.95;0.90;;;2.80;99.90;;;;;;6189986;23;20036;-71
2023/03/02 06:48:15;;;;;;;1.98;0.90;;;2.80;99.90;;;;;;6216811;23;20012;-71
2023/03/02 06:50:41;;;;;;;1.08;0.80;;;2.70;99.90;;;;;;6190113;23;20013;-71
2023/03/02 06:53:06;;;;;;;4.50;1.20;;;2.70;99.90;;;;;;6189839;23;20342;-72
2023/03/02 06:55:32;;;;;;;4.10;1.02;;;2.80;99.90;;;;;;6189901;23;20059;-71
2023/03/02 06:57:57;;;;;;;0.88;0.88;;;2.80;99.90;;;;;;6216680;23;20465;-72
2023/03/02 07:00:25;;;;;;;3.85;1.52;;;2.70;99.90;;;;;;6216767;23;20330;-72
2023/03/02 07:02:51;;;;;;;0.82;0.82;;;2.70;99.90;;;;;;6189743;23;20016;-72
2023/03/02 07:05:18;;;;;;;3.22;1.00;;;2.70;99.90;;;;;;6216825;23;20062;-72
2023/03/02 07:07:44;;;;;;;1.30;0.90;;;2.60;99.90;;;;;;6189765;23;20012;-72
2023/03/02 07:10:12;;;;;;;1.85;0.90;;;2.70;99.90;;;;;;6216621;23;20326;-72
2023/03/02 07:12:38;;;;;;;3.42;1.02;;;2.70;99.90;;;;;;6216157;23;20076;-73
2023/03/02 07:15:09;;;;;;;2.85;1.02;;;2.70;99.90;;;;;;6216632;23;20005;-73
2023/03/02 07:17:35;;;;;;;1.88;0.90;;;2.70;99.90;;;;;;6216620;23;20009;-73
2023/03/02 07:20:03;;;;;;;1.52;0.80;;;2.80;99.90;;;;;;6216643;23;20333;-75
2023/03/02 07:22:29;;;;;;;1.63;0.85;;;2.70;99.90;;;;;;6189621;23;20020;-73
2023/03/02 07:24:55;;;;;;;4.93;0.98;;;2.80;99.90;;;;;;6164828;23;20013;-71
2023/03/02 07:27:20;;;;;;;1.65;0.88;;;2.70;99.90;;;;;;6189594;23;20008;-72
2023/03/02 07:29:46;;;;;;;1.58;0.90;;;2.70;99.90;;;;;;6189611;23;20040;-72
2023/03/02 07:32:12;;;;;;;0.82;0.80;;;2.80;99.90;;;;;;6216496;23;20016;-76
2023/03/02 07:34:37;;;;;;;1.00;0.70;;;2.80;99.90;;;;;;6189570;23;20062;-72
2023/03/02 07:37:03;;;;;;;0.93;0.85;;;2.70;99.90;;;;;;6189834;23;20017;-72
2023/03/02 07:39:29;;;;;;;5.40;1.60;;;2.80;99.90;;;;;;6189535;23;20322;-72
2023/03/02 07:41:59;;;;;;;0.77;0.75;;;2.60;99.90;;;;;;6189447;23;20016;-72
2023/03/02 07:44:25;;;;;;;1.52;0.90;;;2.60;99.90;;;;;;6189219;23;20020;-71
2023/03/02 07:46:51;;;;;;;3.50;1.20;;;2.50;99.90;;;;;;6189396;23;20009;-72
2023/03/02 07:49:17;;;;;;;1.67;0.90;;;2.50;99.90;;;;;;6216385;23;20387;-72
2023/03/02 07:51:42;;;;;;;2.50;1.00;;;2.60;99.90;;;;;;6164635;23;20019;-72
2023/03/02 07:54:08;;;;;;;2.78;1.00;;;2.70;99.90;;;;;;6164565;23;20108;-72
2023/03/02 07:56:34;;;;;;;3.00;1.38;;;2.80;99.90;;;;;;6189562;23;20023;-71
2023/03/02 07:59:00;;;;;;;2.38;0.90;;;2.70;99.90;;;;;;6216343;23;20337;-71
2023/03/02 08:01:26;;;;;;;1.17;0.80;;;2.70;99.90;;;;;;6216446;23;20009;-71
2023/03/02 08:03:52;;;;;;;2.75;1.00;;;2.80;99.90;;;;;;6216326;23;20017;-73
2023/03/02 08:06:17;;;;;;;3.30;1.10;;;2.80;99.90;;;;;;6164743;23;20116;-72
2023/03/02 08:08:43;;;;;;;1.05;0.80;;;2.90;99.90;;;;;;6164576;23;20013;-72
2023/03/02 08:11:12;;;;;;;0.90;0.65;;;2.80;99.90;;;;;;6189952;23;20310;-72
2023/03/02 08:13:37;;;;;;;0.80;0.80;;;2.80;99.90;;;;;;6216213;23;20048;-71
2023/03/02 08:16:05;;;;;;;1.73;0.85;;;2.80;99.90;;;;;;6189406;23;20070;-72
2023/03/02 08:18:32;;;;;;;2.42;0.80;;;2.90;99.90;;;;;;6216231;23;20027;-68
2023/03/02 08:20:58;;;;;;;3.25;1.20;;;2.80;99.90;;;;;;6189876;23;20067;-70
2023/03/02 08:23:24;;;;;;;1.23;0.80;;;2.70;99.90;;;;;;6189154;23;20020;-70
2023/03/02 08:25:51;;;;;;;0.70;0.70;;;2.70;99.90;;;;;;6189136;23;20024;-74
2023/03/02 08:28:18;;;;;;;0.80;0.80;;;2.80;99.90;;;;;;6189684;23;20051;-71
2023/03/02 08:30:44;;;;;;;1.45;0.73;;;3.00;99.90;;;;;;6216015;23;20082;-73
2023/03/02 08:33:10;;;;;;;1.67;0.93;;;3.00;99.90;;;;;;6215635;23;20438;-71
2023/03/02 08:35:35;;;;;;;0.70;0.70;;;3.00;99.90;;;;;;6216117;23;20055;-71
2023/03/02 08:38:01;;;;;;;3.33;1.10;;;3.00;99.90;;;;;;6216034;23;20062;-70
2023/03/02 08:40:27;;;;;;;1.38;0.80;;;3.00;99.90;;;;;;6188951;23;20078;-73
2023/03/02 08:42:56;;;;;;;1.90;0.90;;;3.10;99.90;;;;;;6189193;23;20008;-74
2023/03/02 08:45:25;;;;;;;1.35;0.90;;;3.20;99.90;;;;;;6215919;23;20016;-79
2023/03/02 08:47:53;;;;;;;0.80;0.80;;;3.10;99.90;;;;;;6217000;23;20275;-74
2023/03/02 08:50:20;;;;;;;2.25;1.00;;;3.10;99.90;;;;;;6216014;23;20048;-73
2023/03/02 08:52:46;;;;;;;0.60;0.60;;;3.10;99.90;;;;;;6216004;23;20016;-74
2023/03/02 08:55:12;;;;;;;0.70;0.70;;;3.20;99.90;;;;;;6216248;23;20142;-73
2023/03/02 08:57:40;;;;;;;0.95;0.65;;;3.20;99.90;;;;;;6190885;23;20032;-74
2023/03/02 09:00:08;;;;;;;3.50;0.88;;;3.20;99.90;;;;;;6191060;23;20019;-74
2023/03/02 09:02:33;;;;;;;0.77;0.77;;;3.20;99.90;;;;;;6191096;23;20032;-74
2023/03/02 09:04:59;;;;;;;2.97;1.00;;;3.20;99.90;;;;;;6217853;23;20017;-73
2023/03/02 09:07:25;;;;;;;1.25;0.80;;;3.20;99.90;;;;;;6191109;23;20015;-73
2023/03/02 09:09:50;;;;;;;1.05;0.70;;;3.10;99.90;;;;;;6190825;23;20195;-73
2023/03/02 09:12:16;;;;;;;1.27;0.77;;;3.20;99.90;;;;;;6217420;23;20364;-73
2023/03/02 09:14:42;;;;;;;1.15;0.73;;;3.30;99.90;;;;;;6190675;23;20015;-73
2023/03/02 09:17:07;;;;;;;1.00;0.90;;;3.30;99.90;;;;;;6190752;23;20123;-73
2023/03/02 09:19:40;;;;;;;4.25;1.30;;;3.40;99.90;;;;;;6190741;23;20036;-73
2023/03/02 09:22:07;;;;;;;0.70;0.70;;;3.50;99.90;;;;;;6190890;23;20373;-73
2023/03/02 09:24:36;;;;;;;0.70;0.70;;;3.40;99.90;;;;;;6217647;23;20020;-73
2023/03/02 09:27:02;;;;;;;0.80;0.80;;;3.50;99.90;;;;;;6217884;23;20383;-73
2023/03/02 09:29:28;;;;;;;0.80;0.80;;;3.50;99.90;;;;;;6217285;23;20354;-73
2023/03/02 09:31:54;;;;;;;0.80;0.80;;;3.60;99.90;;;;;;6190550;23;20013;-73
2023/03/02 09:34:20;;;;;;;0.80;0.80;;;3.60;99.90;;;;;;6217023;23;20012;-73
2023/03/02 09:36:45;;;;;;;0.85;0.80;;;3.70;99.90;;;;;;6190601;23;20130;-73
2023/03/02 09:39:12;;;;;;;0.73;0.70;;;3.70;99.90;;;;;;6190598;23;20319;-73
2023/03/02 09:41:53;;;;;;;1.50;0.70;;;3.70;99.90;;;;;;6190457;23;20013;-73
2023/03/02 09:44:39;;;;;;;0.77;0.77;;;3.70;99.90;;;;;;6217528;23;20024;-73
2023/03/02 09:47:32;;;;;;;0.70;0.70;;;3.70;99.90;;;;;;6190561;23;20020;-73
2023/03/02 09:50:38;;;;;;;0.93;0.90;;;3.90;99.90;;;;;;6190551;23;20020;-73
2023/03/02 09:53:07;;;;;;;0.88;0.88;;;3.70;99.90;;;;;;6071691;23;20487;-73
2023/03/02 09:55:35;;;;;;;0.75;0.75;;;3.80;99.90;;;;;;6072040;23;20022;-73
2023/03/02 09:58:07;;;;;;;0.80;0.80;;;3.90;99.90;;;;;;6096192;23;20081;-73
2023/03/02 10:00:37;;;;;;;1.17;0.90;;;3.90;99.90;;;;;;6071999;23;20059;-73
2023/03/02 10:03:19;;;;;;;0.73;0.73;;;3.90;99.90;;;;;;6071949;23;20101;-73
2023/03/02 10:05:46;;;;;;;0.80;0.80;;;4.00;99.90;;;;;;6095987;23;20103;-73
2023/03/02 10:08:21;;;;;;;0.70;0.70;;;4.10;99.90;;;;;;6071829;23;20033;-73
2023/03/02 10:11:07;;;;;;;0.70;0.70;;;4.10;99.90;;;;;;6072067;23;20045;-72
2023/03/02 10:13:45;;;;;;;0.80;0.80;;;4.10;99.90;;;;;;6071770;23;20018;-73
2023/03/02 10:16:22;;;;;;;1.08;0.85;;;4.10;99.90;;;;;;6095849;23;20073;-73
2023/03/02 10:19:06;;;;;;;1.27;0.98;;;4.20;99.90;;;;;;6071846;23;20348;-73
2023/03/02 10:21:31;;;;;;;0.73;0.73;;;4.20;99.90;;;;;;6095966;23;20065;-73
2023/03/02 10:24:23;;;;;;;0.70;0.70;;;4.30;99.90;;;;;;6140507;23;20067;-73
2023/03/02 10:26:54;;;;;;;0.85;0.85;;;4.30;99.90;;;;;;6189394;23;20023;-73
2023/03/02 10:29:46;;;;;;;0.70;0.70;;;4.30;99.90;;;;;;6190688;23;20066;-73
2023/03/02 10:32:30;;;;;;;0.80;0.80;;;4.40;99.90;;;;;;6200531;23;20015;-72
2023/03/02 10:34:57;;;;;;;0.80;0.80;;;4.40;99.90;;;;;;6190034;23;20004;-72
2023/03/02 10:37:28;;;;;;;0.80;0.80;;;4.40;99.90;;;;;;6217182;23;20013;-72
2023/03/02 10:39:54;;;;;;;;;;;4.40;99.90;;;;;;6217357;23;20047;-72
2023/03/02 10:42:29;;;;;;;0.93;0.93;;;4.30;99.90;;;;;;6165330;23;19912;-72
2023/03/02 10:45:02;;;;;;;0.90;0.90;;;4.40;99.90;;;;;;6189897;23;20017;-72
2023/03/02 10:47:28;;;;;;;0.80;0.80;;;4.40;99.90;;;;;;6190009;23;20067;-73
2023/03/02 10:49:56;;;;;;;0.80;0.80;;;4.40;99.90;;;;;;6165230;23;20087;-73
2023/03/02 10:52:24;;;;;;;0.80;0.80;;;4.40;99.90;;;;;;6165429;23;20009;-73
2023/03/02 10:55:04;;;;;;;0.73;0.73;;;4.40;99.90;;;;;;6217359;23;20013;-73
2023/03/02 10:57:30;;;;;;;;;;;4.40;99.90;;;;;;6190769;23;20008;-74
2023/03/02 11:00:20;;;;;;;0.70;0.70;;;4.50;99.90;;;;;;6216807;23;19912;-73
2023/03/02 11:02:51;;;;;;;0.70;0.70;;;4.40;99.90;;;;;;6165307;23;20005;-72
2023/03/02 11:05:33;;;;;;;0.73;0.73;;;4.60;99.90;;;;;;6165042;23;20047;-73
2023/03/02 11:08:07;;;;;;;0.60;0.60;;;4.60;99.90;;;;;;6190187;23;20029;-73
2023/03/02 11:10:39;;;;;;;0.80;0.80;;;4.60;99.90;;;;;;6189910;23;20059;-73
2023/03/02 11:13:27;;;;;;;0.80;0.80;;;4.60;99.90;;;;;;6191284;23;20314;-73
2023/03/02 11:15:56;;;;;;;0.75;0.75;;;4.70;99.90;;;;;;6190327;23;20039;-73
2023/03/02 11:18:28;;;;;;;0.85;0.85;;;4.80;99.90;;;;;;6189510;23;20012;-73
2023/03/02 11:21:19;;;;;;;0.80;0.80;;;4.90;99.90;;;;;;6216827;23;20013;-73
2023/03/02 11:24:15;;;;;;;0.80;0.80;;;4.90;99.90;;;;;;6173908;23;20035;-73
2023/03/02 11:26:53;;;;;;;0.90;0.90;;;5.00;99.90;;;;;;6189752;23;20019;-73
2023/03/02 11:29:29;;;;;;;0.80;0.80;;;5.10;99.90;;;;;;6189772;23;20039;-73
2023/03/02 11:32:07;;;;;;;0.80;0.80;;;5.10;99.90;;;;;;6189848;23;20079;-73
2023/03/02 11:34:50;;;;;;;0.80;0.80;;;5.10;99.90;;;;;;6189700;23;20044;-73
2023/03/02 11:37:35;;;;;;;0.70;0.70;;;5.10;99.90;;;;;;6216727;23;20384;-73
2023/03/02 11:40:12;;;;;;;0.75;0.75;;;5.20;99.90;;;;;;6189471;23;20084;-73
2023/03/02 11:42:45;;;;;;;0.70;0.70;;;5.20;99.90;;;;;;6189754;23;20012;-72
2023/03/02 11:45:13;;;;;;;0.70;0.70;;;5.30;99.90;;;;;;6216672;23;20088;-74
2023/03/02 11:48:02;;;;;;;0.60;0.60;;;5.40;99.90;;;;;;6189698;23;20009;-74
2023/03/02 11:50:29;;;;;;;0.75;0.75;;;5.40;99.90;;;;;;6189582;23;20082;-74
2023/03/02 11:53:00;;;;;;;0.73;0.73;;;5.40;99.90;;;;;;6189465;23;20005;-73
2023/03/02 11:55:30;;;;;;;0.60;0.60;;;5.40;99.90;;;;;;6189419;23;20009;-73
2023/03/02 11:58:00;;;;;;;0.82;0.82;;;5.40;99.90;;;;;;6216779;23;20349;-73
2023/03/02 12:00:33;;;;;;;0.73;0.73;;;5.40;99.90;;;;;;6216313;23;20016;-73
2023/03/02 12:03:03;;;;;;;0.60;0.60;;;5.40;99.90;;;;;;6216332;23;20105;-74
2023/03/02 12:05:34;;;;;;;0.80;0.80;;;5.40;99.90;;;;;;6164683;23;20012;-74
2023/03/02 12:08:20;;;;;;;0.70;0.70;;;5.40;99.90;;;;;;6190480;23;20008;-74
2023/03/02 12:11:00;;;;;;;0.70;0.70;;;5.40;99.90;;;;;;6144140;23;20067;-74
2023/03/02 12:13:35;;;;;;;0.70;0.70;;;5.50;99.90;;;;;;6189273;23;20016;-74
2023/03/02 12:16:02;;;;;;;0.70;0.70;;;5.70;99.90;;;;;;6189266;23;20009;-73
2023/03/02 12:18:39;;;;;;;0.70;0.70;;;5.70;99.90;;;;;;6189225;23;20013;-73
2023/03/02 12:21:12;;;;;;;0.60;0.60;;;5.60;99.90;;;;;;6216157;23;20103;-73
2023/03/02 12:23:58;;;;;;;0.70;0.70;;;5.70;99.90;;;;;;6164497;23;20017;-74
2023/03/02 12:26:34;;;;;;;0.70;0.70;;;5.80;99.90;;;;;;6189444;23;20414;-74
2023/03/02 12:29:09;;;;;;;0.63;0.63;;;5.70;99.90;;;;;;6189424;23;20048;-74
2023/03/02 12:32:26;;;;;;;0.70;0.70;;;5.80;99.90;;;;;;6218350;23;20066;-73
2023/03/02 12:35:07;;;;;;;0.60;0.60;;;5.80;99.90;;;;;;6072796;23;20010;-74
2023/03/02 12:37:55;;;;;;;0.60;0.60;;;5.80;99.90;;;;;;6097816;23;20324;-73
2023/03/02 12:40:42;;;;;;;0.63;0.63;;;5.80;99.90;;;;;;6096686;23;20022;-73
2023/03/02 12:43:26;;;;;;;0.68;0.68;;;5.80;99.90;;;;;;6096664;23;20053;-73
2023/03/02 12:46:19;;;;;;;0.57;0.57;;;5.90;99.90;;;;;;6096919;23;20021;-73
2023/03/02 12:49:14;;;;;;;0.63;0.63;;;5.80;99.90;;;;;;6048693;23;20280;-74
2023/03/02 12:51:51;;;;;;;0.70;0.70;;;5.70;99.90;;;;;;6072990;23;20083;-74
2023/03/02 12:54:29;;;;;;;0.55;0.55;;;5.80;99.90;;;;;;6048624;23;20187;-73
2023/03/02 12:57:13;;;;;;;0.60;0.60;;;5.80;99.90;;;;;;6096792;23;20018;-74
2023/03/02 12:59:39;;;;;;;0.60;0.60;;;5.80;99.90;;;;;;6096617;23;20018;-74
2023/03/02 13:02:14;;;;;;;0.60;0.60;;;5.90;99.90;;;;;;6096567;23;20018;-74
2023/03/02 13:04:40;;;;;;;0.60;0.60;;;5.80;99.90;;;;;;6048725;23;20029;-73
2023/03/02 13:07:18;;;;;;;0.52;0.52;;;5.90;99.90;;;;;;6072654;23;20022;-73
2023/03/02 13:09:49;;;;;;;0.60;0.60;;;5.90;99.90;;;;;;6137887;23;20016;-73
2023/03/02 13:12:14;;;;;;;0.50;0.50;;;5.90;99.90;;;;;;6217949;23;20020;-73